Time;durP1;ratioP1;P1;durP2;ratioP2;P2;SDS_P1;SDS_P2;PMS_P1;PMS_P2;Temp;Humidity;BMP_temperature;BMP_pressure;BME280_temperature;BME280_humidity;BME280_pressure;Samples;Min_cycle;Max_cycle;Signal;HPM_P1;HPM_P2
2021/11/07 00:05:02;;;;;;;;;3.50;1.00;;;;;;;;5082326;27;111832;-73
2021/11/07 00:07:54;;;;;;;;;1.25;1.00;;;;;;;;5085859;27;112657;-73
2021/11/07 00:13:11;;;;;;;;;2.50;1.00;;;;;;;;5083104;27;112009;-74
2021/11/07 00:15:37;;;;;;;;;2.00;1.00;;;;;;;;5081465;27;113797;-74
2021/11/07 00:18:07;;;;;;;;;1.00;1.00;;;;;;;;5083479;27;111807;-73
2021/11/07 00:20:33;;;;;;;;;2.00;1.00;;;;;;;;5082712;27;113280;-73
2021/11/07 00:25:50;;;;;;;;;3.00;2.00;;;;;;;;5082648;27;111761;-73
2021/11/07 00:29:20;;;;;;;;;4.50;1.50;;;;;;;;5082453;27;111932;-74
2021/11/07 00:31:22;;;;;;;;;1.00;1.00;;;;;;;;5057047;27;112605;-73
2021/11/07 00:38:56;;;;;;;;;4.25;3.00;;;;;;;;5082617;27;111701;-74
2021/11/07 00:43:57;;;;;;;;;3.00;2.00;;;;;;;;5081271;27;113238;-73
2021/11/07 00:48:54;;;;;;;;;4.50;2.00;;;;;;;;5082654;27;112299;-74
2021/11/07 00:51:29;;;;;;;;;2.00;2.00;;;;;;;;5080675;27;113022;-76
2021/11/07 00:56:47;;;;;;;;;1.00;1.00;;;;;;;;5080792;27;113313;-72
2021/11/07 01:01:59;;;;;;;;;5.00;2.00;;;;;;;;5081946;27;111734;-72
2021/11/07 01:04:27;;;;;;;;;1.75;1.75;;;;;;;;5081059;27;113680;-72
2021/11/07 01:06:52;;;;;;;;;2.00;2.00;;;;;;;;5081342;27;111984;-72
2021/11/07 01:09:17;;;;;;;;;6.00;1.00;;;;;;;;5081458;27;112110;-71
2021/11/07 01:11:42;;;;;;;;;2.00;1.50;;;;;;;;5079767;27;112346;-71
2021/11/07 01:14:09;;;;;;;;;3.00;0.00;;;;;;;;5084567;27;112215;-71
2021/11/07 01:16:35;;;;;;;;;1.00;1.00;;;;;;;;5080329;27;113757;-73
2021/11/07 01:19:00;;;;;;;;;3.00;1.00;;;;;;;;5061934;27;112217;-72
2021/11/07 01:21:29;;;;;;;;;1.25;1.25;;;;;;;;5074206;27;113196;-72
2021/11/07 01:23:59;;;;;;;;;4.25;4.00;;;;;;;;5059881;27;114170;-73
2021/11/07 01:28:54;;;;;;;;;0.25;0.25;;;;;;;;5080228;27;111850;-73
2021/11/07 01:31:19;;;;;;;;;1.00;1.00;;;;;;;;5079688;27;112799;-73
2021/11/07 01:33:45;;;;;;;;;4.00;1.50;;;;;;;;5062005;27;112122;-72
2021/11/07 01:36:29;;;;;;;;;5.75;2.00;;;;;;;;5081977;27;112222;-73
2021/11/07 01:42:10;;;;;;;;;2.50;1.00;;;;;;;;5052658;27;111996;-73
2021/11/07 01:44:37;;;;;;;;;3.00;3.00;;;;;;;;5083603;27;112671;-72
2021/11/07 01:47:03;;;;;;;;;4.00;2.00;;;;;;;;5084216;27;112186;-72
2021/11/07 01:49:34;;;;;;;;;4.75;4.00;;;;;;;;5083866;27;113491;-72
2021/11/07 01:52:01;;;;;;;;;1.25;1.00;;;;;;;;5083344;27;112494;-73
2021/11/07 01:54:30;;;;;;;;;2.00;2.00;;;;;;;;5084706;27;112017;-73
2021/11/07 01:56:55;;;;;;;;;2.50;2.00;;;;;;;;5084631;27;112342;-73
2021/11/07 01:59:21;;;;;;;;;1.00;1.00;;;;;;;;5087185;27;112293;-73
2021/11/07 02:01:50;;;;;;;;;2.00;2.00;;;;;;;;5083890;27;111856;-73
2021/11/07 02:04:16;;;;;;;;;2.00;2.00;;;;;;;;5083255;27;112523;-73
2021/11/07 02:06:41;;;;;;;;;2.00;2.00;;;;;;;;5084376;27;111700;-73
2021/11/07 02:09:06;;;;;;;;;3.00;1.25;;;;;;;;5083711;27;112951;-77
2021/11/07 02:11:32;;;;;;;;;5.50;2.00;;;;;;;;5082969;27;112433;-71
2021/11/07 02:13:57;;;;;;;;;3.50;2.00;;;;;;;;5084023;27;111894;-72
2021/11/07 02:16:23;;;;;;;;;2.00;2.00;;;;;;;;5083546;27;111806;-72
2021/11/07 02:18:48;;;;;;;;;3.50;3.50;;;;;;;;5083226;27;112740;-72
2021/11/07 02:21:14;;;;;;;;;2.00;2.00;;;;;;;;5079902;27;112132;-72
2021/11/07 02:23:39;;;;;;;;;1.75;1.00;;;;;;;;5083390;27;112459;-72
2021/11/07 02:26:05;;;;;;;;;2.00;1.00;;;;;;;;5083972;27;112252;-72
2021/11/07 02:28:49;;;;;;;;;1.50;1.50;;;;;;;;5084064;27;112006;-72
2021/11/07 02:31:15;;;;;;;;;4.00;1.50;;;;;;;;5082780;27;112620;-73
2021/11/07 02:33:41;;;;;;;;;1.75;1.75;;;;;;;;5084097;27;112079;-72
2021/11/07 02:36:08;;;;;;;;;1.50;1.50;;;;;;;;5083718;27;111770;-73
2021/11/07 02:38:35;;;;;;;;;3.00;3.00;;;;;;;;5083178;27;113201;-73
2021/11/07 02:41:01;;;;;;;;;5.00;2.50;;;;;;;;5083845;27;111657;-73
2021/11/07 02:43:26;;;;;;;;;3.50;3.50;;;;;;;;5086737;27;112098;-72
2021/11/07 02:45:51;;;;;;;;;4.00;2.00;;;;;;;;5083191;27;111955;-72
2021/11/07 02:48:17;;;;;;;;;2.00;2.00;;;;;;;;5083325;27;112174;-73
2021/11/07 02:50:42;;;;;;;;;5.00;1.00;;;;;;;;5081163;27;112582;-73
2021/11/07 02:53:08;;;;;;;;;2.00;2.00;;;;;;;;5064934;27;111925;-73
2021/11/07 02:55:33;;;;;;;;;1.50;1.50;;;;;;;;5083648;27;112894;-72
2021/11/07 02:57:59;;;;;;;;;3.00;3.00;;;;;;;;5082421;27;112260;-72
2021/11/07 03:00:26;;;;;;;;;2.00;1.00;;;;;;;;5083480;27;111652;-72
2021/11/07 03:02:51;;;;;;;;;4.50;1.25;;;;;;;;5083195;27;113379;-72
2021/11/07 03:05:17;;;;;;;;;1.50;1.50;;;;;;;;5085710;27;112311;-72
2021/11/07 03:07:43;;;;;;;;;6.00;5.00;;;;;;;;5083279;27;113373;-72
2021/11/07 03:10:10;;;;;;;;;2.00;2.00;;;;;;;;5082574;27;113119;-72
2021/11/07 03:12:37;;;;;;;;;1.75;1.75;;;;;;;;5083397;27;111918;-73
2021/11/07 03:15:03;;;;;;;;;4.75;2.00;;;;;;;;5083329;27;112304;-72
2021/11/07 03:17:29;;;;;;;;;4.75;3.00;;;;;;;;5063603;27;115351;-73
2021/11/07 03:19:54;;;;;;;;;0.25;0.25;;;;;;;;5083593;27;111704;-73
2021/11/07 03:22:23;;;;;;;;;4.00;1.00;;;;;;;;5083681;27;112461;-73
2021/11/07 03:24:54;;;;;;;;;4.00;2.00;;;;;;;;5086409;27;112491;-72
2021/11/07 03:27:41;;;;;;;;;2.50;1.50;;;;;;;;5083301;27;112972;-72
2021/11/07 03:30:15;;;;;;;;;1.00;1.00;;;;;;;;5082157;27;112394;-72
2021/11/07 03:32:42;;;;;;;;;2.50;1.00;;;;;;;;5083009;27;111912;-73
2021/11/07 03:35:16;;;;;;;;;3.00;1.50;;;;;;;;5083566;27;111965;-72
2021/11/07 03:37:45;;;;;;;;;1.25;1.00;;;;;;;;5081678;27;112636;-72
2021/11/07 03:40:12;;;;;;;;;0.00;0.00;;;;;;;;5082202;27;112343;-72
2021/11/07 03:42:38;;;;;;;;;2.00;2.00;;;;;;;;5063697;27;114459;-72
2021/11/07 03:45:04;;;;;;;;;1.00;0.50;;;;;;;;5082131;27;112785;-72
2021/11/07 03:47:29;;;;;;;;;3.50;1.50;;;;;;;;5086669;27;111851;-72
2021/11/07 03:49:55;;;;;;;;;1.00;1.00;;;;;;;;5081444;27;113465;-72
2021/11/07 03:52:20;;;;;;;;;0.00;0.00;;;;;;;;5082300;27;112160;-72
2021/11/07 03:54:46;;;;;;;;;1.00;1.00;;;;;;;;5081735;27;112105;-73
2021/11/07 03:57:12;;;;;;;;;1.00;1.00;;;;;;;;5080563;27;112624;-73
2021/11/07 03:59:41;;;;;;;;;1.00;1.00;;;;;;;;5082335;27;111767;-72
2021/11/07 04:02:08;;;;;;;;;3.25;1.00;;;;;;;;5082784;27;113278;-72
2021/11/07 04:04:33;;;;;;;;;1.00;1.00;;;;;;;;5081698;27;112737;-72
2021/11/07 04:06:58;;;;;;;;;1.25;1.25;;;;;;;;5082467;27;111879;-72
2021/11/07 04:09:24;;;;;;;;;1.00;1.00;;;;;;;;5085191;27;112196;-72
2021/11/07 04:11:49;;;;;;;;;0.75;0.75;;;;;;;;5082548;27;112095;-72
2021/11/07 04:14:15;;;;;;;;;1.00;1.00;;;;;;;;5082069;27;111836;-72
2021/11/07 04:16:41;;;;;;;;;3.00;1.00;;;;;;;;5080660;27;114124;-72
2021/11/07 04:19:08;;;;;;;;;1.25;1.25;;;;;;;;5082063;27;111737;-72
2021/11/07 04:21:34;;;;;;;;;2.50;1.00;;;;;;;;5081807;27;113019;-72
2021/11/07 04:23:59;;;;;;;;;1.00;1.00;;;;;;;;5081073;27;112720;-72
2021/11/07 04:26:25;;;;;;;;;2.50;2.50;;;;;;;;5082003;27;111746;-72
2021/11/07 04:28:50;;;;;;;;;0.25;0.00;;;;;;;;5081268;27;112163;-72
2021/11/07 04:31:16;;;;;;;;;0.50;0.50;;;;;;;;5084627;27;113058;-72
2021/11/07 04:33:42;;;;;;;;;0.00;0.00;;;;;;;;5082363;27;111880;-72
2021/11/07 04:36:07;;;;;;;;;1.50;1.00;;;;;;;;5081177;27;112413;-72
2021/11/07 04:38:34;;;;;;;;;1.00;1.00;;;;;;;;5082154;27;111832;-73
2021/11/07 04:41:00;;;;;;;;;0.00;0.00;;;;;;;;5081710;27;111996;-74
2021/11/07 04:43:26;;;;;;;;;0.25;0.25;;;;;;;;5080485;27;112371;-73
2021/11/07 04:45:51;;;;;;;;;1.75;1.00;;;;;;;;5081333;27;111790;-76
2021/11/07 04:48:17;;;;;;;;;0.75;0.00;;;;;;;;5063685;27;113388;-84
2021/11/07 04:50:42;;;;;;;;;1.00;1.00;;;;;;;;5080724;27;112776;-77
2021/11/07 04:53:08;;;;;;;;;1.25;0.00;;;;;;;;5086131;27;111965;-79
2021/11/07 04:55:35;;;;;;;;;2.50;1.00;;;;;;;;5080676;27;112909;-83
2021/11/07 04:58:01;;;;;;;;;1.00;1.00;;;;;;;;5081018;27;111934;-81
2021/11/07 05:00:26;;;;;;;;;2.00;1.00;;;;;;;;5062679;27;114587;-74
2021/11/07 05:02:53;;;;;;;;;4.00;2.00;;;;;;;;5080057;27;112924;-74
2021/11/07 05:05:19;;;;;;;;;3.50;1.00;;;;;;;;5081726;27;111986;-73
2021/11/07 05:07:44;;;;;;;;;1.00;1.00;;;;;;;;5062793;27;113385;-71
2021/11/07 05:10:10;;;;;;;;;0.75;0.75;;;;;;;;5080718;27;112291;-72
2021/11/07 05:12:35;;;;;;;;;0.00;0.00;;;;;;;;5082103;27;111805;-74
2021/11/07 05:15:01;;;;;;;;;1.00;0.00;;;;;;;;5086871;27;111964;-72
2021/11/07 05:17:26;;;;;;;;;1.00;1.00;;;;;;;;5083894;27;111680;-72
2021/11/07 05:19:51;;;;;;;;;2.00;1.75;;;;;;;;5083466;27;112566;-70
2021/11/07 05:22:16;;;;;;;;;2.00;1.00;;;;;;;;5083182;27;112292;-72
2021/11/07 05:24:42;;;;;;;;;1.00;0.75;;;;;;;;5084407;27;112858;-72
2021/11/07 05:27:07;;;;;;;;;1.00;1.00;;;;;;;;5084938;27;112245;-72
2021/11/07 05:29:32;;;;;;;;;1.00;0.00;;;;;;;;5073161;27;113039;-73
2021/11/07 05:31:59;;;;;;;;;2.00;1.00;;;;;;;;5083866;27;112173;-73
2021/11/07 05:34:25;;;;;;;;;2.00;1.00;;;;;;;;5081696;27;112527;-73
2021/11/07 05:36:51;;;;;;;;;1.00;1.00;;;;;;;;5083876;27;112046;-72
2021/11/07 05:39:17;;;;;;;;;4.25;4.25;;;;;;;;5084150;27;111982;-73
2021/11/07 05:41:42;;;;;;;;;1.50;1.50;;;;;;;;5082904;27;112343;-70
2021/11/07 05:44:08;;;;;;;;;3.00;2.00;;;;;;;;5084206;27;111951;-73
2021/11/07 05:46:33;;;;;;;;;0.75;0.00;;;;;;;;5084509;27;111977;-72
2021/11/07 05:48:58;;;;;;;;;1.00;1.00;;;;;;;;5083089;27;113202;-73
2021/11/07 05:51:24;;;;;;;;;1.75;1.00;;;;;;;;5073594;27;111925;-73
2021/11/07 05:53:49;;;;;;;;;2.00;2.00;;;;;;;;5083690;27;112048;-73
2021/11/07 05:56:15;;;;;;;;;1.00;1.00;;;;;;;;5086608;27;112283;-73
2021/11/07 05:58:40;;;;;;;;;4.25;2.00;;;;;;;;5084148;27;112261;-73
2021/11/07 06:01:06;;;;;;;;;1.25;1.25;;;;;;;;5072014;27;112914;-70
2021/11/07 06:03:31;;;;;;;;;6.75;4.00;;;;;;;;5084120;27;112672;-73
2021/11/07 06:05:56;;;;;;;;;1.00;1.00;;;;;;;;5084414;27;112728;-73
2021/11/07 06:08:22;;;;;;;;;1.00;1.00;;;;;;;;5083695;27;112719;-73
2021/11/07 06:10:47;;;;;;;;;4.50;1.75;;;;;;;;5084801;27;113097;-73
2021/11/07 06:13:13;;;;;;;;;2.00;2.00;;;;;;;;5084584;27;112110;-73
2021/11/07 06:15:38;;;;;;;;;1.00;1.00;;;;;;;;5083195;27;113672;-73
2021/11/07 06:18:03;;;;;;;;;1.50;1.50;;;;;;;;5088194;27;111834;-74
2021/11/07 06:20:30;;;;;;;;;1.00;1.00;;;;;;;;5082565;27;113890;-74
2021/11/07 06:22:55;;;;;;;;;3.50;3.50;;;;;;;;5083528;27;111726;-74
2021/11/07 06:25:20;;;;;;;;;5.00;2.00;;;;;;;;5083749;27;112124;-74
2021/11/07 06:27:46;;;;;;;;;2.00;2.00;;;;;;;;5082548;27;112269;-74
2021/11/07 06:30:12;;;;;;;;;2.00;1.00;;;;;;;;5082705;27;111916;-75
2021/11/07 06:32:38;;;;;;;;;3.00;1.00;;;;;;;;5065628;27;114146;-75
2021/11/07 06:35:05;;;;;;;;;2.00;2.00;;;;;;;;5081775;27;112547;-74
2021/11/07 06:37:30;;;;;;;;;2.00;2.00;;;;;;;;5082047;27;111849;-74
2021/11/07 06:39:56;;;;;;;;;1.50;1.50;;;;;;;;5084875;27;112726;-76
2021/11/07 06:42:21;;;;;;;;;3.00;2.00;;;;;;;;5081649;27;112323;-69
2021/11/07 06:44:46;;;;;;;;;1.75;1.00;;;;;;;;5081974;27;112382;-69
2021/11/07 06:47:12;;;;;;;;;3.50;2.00;;;;;;;;5081815;27;112550;-70
2021/11/07 06:49:37;;;;;;;;;3.50;3.00;;;;;;;;5082189;27;111775;-73
2021/11/07 06:52:04;;;;;;;;;1.75;1.50;;;;;;;;5082589;27;112273;-70
2021/11/07 06:54:29;;;;;;;;;0.25;0.25;;;;;;;;5082133;27;113610;-71
2021/11/07 06:56:55;;;;;;;;;4.00;4.00;;;;;;;;5083667;27;111937;-71
2021/11/07 06:59:20;;;;;;;;;2.50;2.00;;;;;;;;5076349;27;112972;-70
2021/11/07 07:01:46;;;;;;;;;7.00;4.00;;;;;;;;5066293;27;112282;-71
2021/11/07 07:04:11;;;;;;;;;10.50;4.50;;;;;;;;5062242;27;113018;-71
2021/11/07 07:06:37;;;;;;;;;4.00;2.00;;;;;;;;5053418;27;112472;-71
2021/11/07 07:09:09;;;;;;;;;4.00;4.00;;;;;;;;5041591;27;111804;-71
2021/11/07 07:14:16;;;;;;;;;3.00;1.25;;;;;;;;5040576;27;112366;-71
2021/11/07 07:16:54;;;;;;;;;6.50;5.75;;;;;;;;5041572;27;112099;-71
2021/11/07 07:19:37;;;;;;;;;7.50;5.75;;;;;;;;5053174;27;112413;-70
2021/11/07 07:27:28;;;;;;;;;2.00;2.00;;;;;;;;5060605;27;112445;-69
2021/11/07 07:30:03;;;;;;;;;3.00;2.75;;;;;;;;5061877;27;112189;-69
2021/11/07 07:35:13;;;;;;;;;3.25;2.00;;;;;;;;5059713;27;112212;-69
2021/11/07 07:37:39;;;;;;;;;3.75;3.75;;;;;;;;5048833;27;115058;-69
2021/11/07 07:40:05;;;;;;;;;2.75;2.75;;;;;;;;5039094;27;112549;-71
2021/11/07 07:42:32;;;;;;;;;3.00;3.00;;;;;;;;5060742;27;112491;-72
2021/11/07 07:44:57;;;;;;;;;3.00;3.00;;;;;;;;5065221;27;111783;-72
2021/11/07 07:47:23;;;;;;;;;3.25;2.50;;;;;;;;5060772;27;112634;-71
2021/11/07 07:49:49;;;;;;;;;5.25;2.00;;;;;;;;5061247;27;111881;-71
2021/11/07 07:52:19;;;;;;;;;3.00;3.00;;;;;;;;5060747;27;112091;-70
2021/11/07 07:54:44;;;;;;;;;4.00;4.00;;;;;;;;5060080;27;112626;-71
2021/11/07 07:57:10;;;;;;;;;2.00;2.00;;;;;;;;5055762;27;113334;-71
2021/11/07 07:59:35;;;;;;;;;2.00;1.50;;;;;;;;5039523;27;115114;-72
2021/11/07 08:02:01;;;;;;;;;3.00;3.00;;;;;;;;5042684;27;112424;-75
2021/11/07 08:04:26;;;;;;;;;2.00;2.00;;;;;;;;5058424;27;111988;-73
2021/11/07 08:06:51;;;;;;;;;3.00;3.00;;;;;;;;5043078;27;112975;-74
2021/11/07 08:09:16;;;;;;;;;3.00;3.00;;;;;;;;5040068;27;111990;-72
2021/11/07 08:11:42;;;;;;;;;1.00;0.00;;;;;;;;5040639;27;112395;-73
2021/11/07 08:14:07;;;;;;;;;4.00;3.75;;;;;;;;5037434;27;114630;-72
2021/11/07 08:16:35;;;;;;;;;4.00;4.00;;;;;;;;5041643;27;112111;-72
2021/11/07 08:19:00;;;;;;;;;3.25;3.00;;;;;;;;5040595;27;113015;-72
2021/11/07 08:21:26;;;;;;;;;3.50;3.50;;;;;;;;5039135;27;112313;-72
2021/11/07 08:23:53;;;;;;;;;6.50;3.75;;;;;;;;5038811;27;112069;-72
2021/11/07 08:26:20;;;;;;;;;5.00;5.00;;;;;;;;5039570;27;114016;-84
2021/11/07 08:28:46;;;;;;;;;3.75;3.25;;;;;;;;5040632;27;116064;-76
2021/11/07 08:31:19;;;;;;;;;5.00;5.00;;;;;;;;5038888;27;113618;-77
2021/11/07 08:33:45;;;;;;;;;3.00;3.00;;;;;;;;5039835;27;114078;-76
2021/11/07 08:36:15;;;;;;;;;3.00;3.00;;;;;;;;5057757;27;111936;-74
2021/11/07 08:38:51;;;;;;;;;3.75;3.00;;;;;;;;5060236;27;112051;-76
2021/11/07 08:41:18;;;;;;;;;6.00;3.00;;;;;;;;5060225;27;113786;-78
2021/11/07 09:05:07;;;;;;;;;5.75;4.00;;;;;;;;5060340;27;111950;-71
2021/11/07 09:10:03;;;;;;;;;7.75;6.75;;;;;;;;5059008;27;112379;-72
2021/11/07 09:12:29;;;;;;;;;2.00;2.00;;;;;;;;5060345;27;112443;-72
2021/11/07 09:14:55;;;;;;;;;8.25;3.75;;;;;;;;5063518;27;111880;-75
2021/11/07 09:17:21;;;;;;;;;6.25;4.50;;;;;;;;5060810;27;111714;-72
2021/11/07 09:19:49;;;;;;;;;4.00;3.75;;;;;;;;5060721;27;111907;-71
2021/11/07 09:25:04;;;;;;;;;4.50;3.75;;;;;;;;5051654;27;115964;-74
2021/11/07 09:27:37;;;;;;;;;2.50;2.50;;;;;;;;5060281;27;113447;-70
2021/11/07 09:30:07;;;;;;;;;3.50;3.00;;;;;;;;5054126;27;114322;-72
2021/11/07 09:35:28;;;;;;;;;3.00;2.00;;;;;;;;5060700;27;112005;-71
2021/11/07 09:38:07;;;;;;;;;2.00;2.00;;;;;;;;5062331;27;111838;-70
2021/11/07 09:40:35;;;;;;;;;3.75;2.00;;;;;;;;5060772;27;111802;-71
2021/11/07 09:43:16;;;;;;;;;1.75;1.75;;;;;;;;5058982;27;113875;-71
2021/11/07 09:48:18;;;;;;;;;4.00;1.50;;;;;;;;5060126;27;112656;-72
2021/11/07 09:50:46;;;;;;;;;1.00;1.00;;;;;;;;5058288;27;112454;-73
2021/11/07 09:53:12;;;;;;;;;2.00;2.00;;;;;;;;5059511;27;111929;-73
2021/11/07 09:55:38;;;;;;;;;3.00;3.00;;;;;;;;5059296;27;113865;-73
2021/11/07 09:58:04;;;;;;;;;3.75;2.75;;;;;;;;5062842;27;112617;-70
2021/11/07 10:00:32;;;;;;;;;2.75;2.75;;;;;;;;5063138;27;112621;-71
2021/11/07 10:02:57;;;;;;;;;3.00;2.50;;;;;;;;5062124;27;112521;-70
2021/11/07 10:05:24;;;;;;;;;2.00;2.00;;;;;;;;5062301;27;112384;-75
2021/11/07 10:08:03;;;;;;;;;2.00;2.00;;;;;;;;5058050;27;112446;-74
2021/11/07 10:10:32;;;;;;;;;2.00;2.00;;;;;;;;5061544;27;114346;-92
2021/11/07 10:13:03;;;;;;;;;1.00;1.00;;;;;;;;5059945;27;114757;-74
2021/11/07 10:15:40;;;;;;;;;2.50;2.00;;;;;;;;5062338;27;112142;-74
2021/11/07 10:18:13;;;;;;;;;1.00;1.00;;;;;;;;5062017;27;113825;-72
2021/11/07 10:20:48;;;;;;;;;2.50;1.75;;;;;;;;5066384;27;112258;-72
2021/11/07 10:23:26;;;;;;;;;2.00;1.50;;;;;;;;5059233;27;113941;-71
2021/11/07 10:25:58;;;;;;;;;2.75;1.25;;;;;;;;5061511;27;113079;-70
2021/11/07 10:28:29;;;;;;;;;3.00;2.00;;;;;;;;5062792;27;113076;-71
2021/11/07 10:31:02;;;;;;;;;1.25;1.25;;;;;;;;5059177;27;112912;-72
2021/11/07 10:52:32;;;;;;;;;2.00;2.00;;;;;;;;5052882;27;112347;-70
2021/11/07 10:54:58;;;;;;;;;1.75;1.75;;;;;;;;5042262;27;112385;-69
2021/11/07 10:57:25;;;;;;;;;2.25;1.25;;;;;;;;5048388;27;112431;-70
2021/11/07 11:00:09;;;;;;;;;1.00;1.00;;;;;;;;5048256;27;113652;-71
2021/11/07 11:02:36;;;;;;;;;4.00;2.00;;;;;;;;5052960;27;112947;-71
2021/11/07 11:05:06;;;;;;;;;2.00;2.00;;;;;;;;5060925;27;112176;-69
2021/11/07 11:07:32;;;;;;;;;2.00;2.00;;;;;;;;5060530;27;114048;-72
2021/11/07 11:10:25;;;;;;;;;2.00;2.00;;;;;;;;5061602;27;112111;-71
2021/11/07 11:13:11;;;;;;;;;1.00;1.00;;;;;;;;5057553;27;112729;-70
2021/11/07 11:15:44;;;;;;;;;1.75;1.00;;;;;;;;5054779;27;114812;-72
2021/11/07 11:24:06;;;;;;;;;2.75;1.75;;;;;;;;5032555;27;112181;-73
2021/11/07 11:29:09;;;;;;;;;2.75;2.75;;;;;;;;5057697;27;112786;-73
2021/11/07 11:32:10;;;;;;;;;2.00;2.00;;;;;;;;5061204;27;112286;-74
2021/11/07 11:34:31;;;;;;;;;2.00;2.00;;;;;;;;5058306;27;112411;-78
2021/11/07 11:37:07;;;;;;;;;2.50;2.50;;;;;;;;5061703;27;111921;-72
2021/11/07 11:39:39;;;;;;;;;2.00;2.00;;;;;;;;5062137;27;112150;-72
2021/11/07 11:42:18;;;;;;;;;2.00;2.00;;;;;;;;5061009;27;113866;-72
2021/11/07 11:44:45;;;;;;;;;2.00;1.00;;;;;;;;5060864;27;111986;-72
2021/11/07 11:47:57;;;;;;;;;3.00;3.00;;;;;;;;5061653;27;112421;-72
2021/11/07 11:50:40;;;;;;;;;3.25;1.00;;;;;;;;5059170;27;112613;-72
2021/11/07 11:56:00;;;;;;;;;1.75;1.75;;;;;;;;5060042;27;112227;-72
2021/11/07 11:58:49;;;;;;;;;3.50;2.50;;;;;;;;5061473;27;112072;-71
2021/11/07 12:01:20;;;;;;;;;2.00;2.00;;;;;;;;5061316;27;113352;-72
2021/11/07 12:04:04;;;;;;;;;3.75;2.00;;;;;;;;5059217;27;113609;-71
2021/11/07 12:09:26;;;;;;;;;2.75;2.75;;;;;;;;5061577;27;112112;-71
2021/11/07 12:11:58;;;;;;;;;3.00;3.00;;;;;;;;5060374;27;112496;-72
2021/11/07 12:14:49;;;;;;;;;6.00;6.00;;;;;;;;5062240;27;112194;-72
2021/11/07 12:17:24;;;;;;;;;5.25;3.00;;;;;;;;5064517;27;112548;-71
2021/11/07 12:19:51;;;;;;;;;1.75;1.75;;;;;;;;5061973;27;111793;-72
2021/11/07 12:22:24;;;;;;;;;3.00;1.25;;;;;;;;5060621;27;113219;-72
2021/11/07 12:24:50;;;;;;;;;3.75;3.00;;;;;;;;5060710;27;112942;-71
2021/11/07 12:27:24;;;;;;;;;2.50;2.00;;;;;;;;5061081;27;111977;-71
2021/11/07 12:29:52;;;;;;;;;2.75;2.00;;;;;;;;5061453;27;111938;-72
2021/11/07 12:32:18;;;;;;;;;3.25;2.00;;;;;;;;5057430;27;114943;-71
2021/11/07 12:35:22;;;;;;;;;2.00;2.00;;;;;;;;5061270;27;112643;-71
2021/11/07 12:40:40;;;;;;;;;1.00;1.00;;;;;;;;5063291;27;112268;-72
2021/11/07 12:43:07;;;;;;;;;1.25;1.25;;;;;;;;5058835;27;112532;-71
2021/11/07 12:45:37;;;;;;;;;1.00;1.00;;;;;;;;5059777;27;112457;-72
2021/11/07 12:48:07;;;;;;;;;1.00;1.00;;;;;;;;5060684;27;111877;-72
2021/11/07 12:51:01;;;;;;;;;3.00;3.00;;;;;;;;5060114;27;113099;-72
2021/11/07 12:53:28;;;;;;;;;1.00;0.50;;;;;;;;5048570;27;114109;-72
2021/11/07 12:55:54;;;;;;;;;2.25;2.00;;;;;;;;5060859;27;112140;-70
2021/11/07 12:58:20;;;;;;;;;1.25;1.25;;;;;;;;5061177;27;112079;-72
2021/11/07 13:00:46;;;;;;;;;2.00;2.00;;;;;;;;5059645;27;112518;-71
2021/11/07 13:03:13;;;;;;;;;1.00;1.00;;;;;;;;5064547;27;111953;-72
2021/11/07 13:05:40;;;;;;;;;1.00;1.00;;;;;;;;5059774;27;112647;-72
2021/11/07 13:08:33;;;;;;;;;2.25;1.25;;;;;;;;5059260;27;112025;-72
2021/11/07 13:10:58;;;;;;;;;2.00;2.00;;;;;;;;5060240;27;113487;-71
2021/11/07 13:19:08;;;;;;;;;1.25;1.00;;;;;;;;5060358;27;111880;-72
2021/11/07 13:24:21;;;;;;;;;1.00;1.00;;;;;;;;5060902;27;111722;-73
2021/11/07 13:29:32;;;;;;;;;1.50;1.50;;;;;;;;5059647;27;113222;-72
2021/11/07 13:34:25;;;;;;;;;1.00;1.00;;;;;;;;5061805;27;112411;-72
2021/11/07 13:36:52;;;;;;;;;1.00;1.00;;;;;;;;5064180;27;111644;-72
2021/11/07 13:39:21;;;;;;;;;1.00;1.00;;;;;;;;5064709;27;113009;-72
2021/11/07 13:41:55;;;;;;;;;2.25;2.00;;;;;;;;5062487;27;112519;-72
2021/11/07 13:44:24;;;;;;;;;2.00;1.00;;;;;;;;5063770;27;111633;-72
2021/11/07 13:46:51;;;;;;;;;4.00;1.00;;;;;;;;5064010;27;113278;-72
2021/11/07 13:49:16;;;;;;;;;2.75;1.00;;;;;;;;5065861;27;112658;-72
2021/11/07 21:52:45;;;;;;;;;43.33;37.00;;;;;;;;5066920;27;1442627;-71
2021/11/07 21:55:11;;;;;;;;;45.33;40.00;;;;;;;;5095270;27;113701;-70
2021/11/07 21:57:37;;;;;;;;;44.00;40.00;;;;;;;;5098758;27;111816;-73
2021/11/07 22:00:07;;;;;;;;;49.67;41.00;;;;;;;;5098146;27;112214;-75
2021/11/07 22:02:34;;;;;;;;;42.33;37.67;;;;;;;;5097573;27;112967;-73
2021/11/07 22:05:00;;;;;;;;;46.33;36.00;;;;;;;;5099325;27;112358;-75
2021/11/07 22:07:25;;;;;;;;;39.00;34.00;;;;;;;;5101260;27;112378;-74
2021/11/07 22:09:51;;;;;;;;;49.33;40.33;;;;;;;;5092984;27;114223;-73
2021/11/07 22:12:20;;;;;;;;;45.67;37.67;;;;;;;;5082901;22;114033;-79
2021/11/07 22:14:50;;;;;;;;;45.33;41.00;;;;;;;;5034281;27;114224;-80
2021/11/07 22:17:20;;;;;;;;;48.00;39.67;;;;;;;;5036654;27;112466;-81
2021/11/07 22:19:48;;;;;;;;;43.25;38.00;;;;;;;;5036613;27;112157;-80
2021/11/07 22:25:09;;;;;;;;;39.00;33.00;;;;;;;;5035894;27;112113;-79
2021/11/07 22:27:45;;;;;;;;;34.00;33.75;;;;;;;;5016802;27;112548;-81
2021/11/07 22:30:12;;;;;;;;;35.75;31.00;;;;;;;;5015346;28;112466;-80
2021/11/07 22:32:44;;;;;;;;;30.50;24.50;;;;;;;;5016620;27;111995;-80
2021/11/07 22:35:14;;;;;;;;;32.50;28.75;;;;;;;;5018851;27;112376;-78
2021/11/07 22:37:41;;;;;;;;;28.25;24.75;;;;;;;;5015813;27;111751;-75
2021/11/07 22:40:07;;;;;;;;;25.75;23.75;;;;;;;;5016634;28;112451;-78
2021/11/07 22:42:34;;;;;;;;;25.00;24.75;;;;;;;;5014232;28;112554;-74
2021/11/07 22:45:00;;;;;;;;;21.25;18.50;;;;;;;;5015568;27;111863;-74
2021/11/07 22:47:31;;;;;;;;;23.00;21.00;;;;;;;;5016619;27;112838;-76
2021/11/07 22:50:15;;;;;;;;;22.25;21.00;;;;;;;;5015136;27;113031;-77
2021/11/07 23:01:08;;;;;;;;;19.50;13.25;;;;;;;;4998904;28;111934;-77
2021/11/07 23:11:14;;;;;;;;;16.00;14.50;;;;;;;;5000539;28;112404;-76
2021/11/07 23:13:39;;;;;;;;;23.00;20.00;;;;;;;;5001960;28;111891;-77
2021/11/07 23:16:05;;;;;;;;;25.75;22.25;;;;;;;;5001127;28;114714;-76
2021/11/07 23:18:31;;;;;;;;;27.25;25.00;;;;;;;;5001022;28;113153;-76
2021/11/07 23:20:56;;;;;;;;;26.00;22.50;;;;;;;;5006050;28;112411;-76
2021/11/07 23:23:22;;;;;;;;;32.50;28.00;;;;;;;;4999158;28;114139;-80
2021/11/07 23:25:48;;;;;;;;;24.00;21.50;;;;;;;;5001774;28;112220;-76
2021/11/07 23:28:18;;;;;;;;;26.00;23.50;;;;;;;;5001470;28;112807;-75
2021/11/07 23:30:44;;;;;;;;;25.25;20.25;;;;;;;;5000941;28;112462;-77
2021/11/07 23:33:19;;;;;;;;;15.00;15.00;;;;;;;;5002400;28;112090;-77
2021/11/07 23:35:45;;;;;;;;;22.75;20.00;;;;;;;;5002554;28;111822;-77
2021/11/07 23:38:11;;;;;;;;;20.25;18.50;;;;;;;;5001020;28;113038;-76
2021/11/07 23:40:37;;;;;;;;;17.00;15.75;;;;;;;;5001313;28;112248;-74
2021/11/07 23:43:04;;;;;;;;;25.50;20.75;;;;;;;;5004030;28;112519;-76
2021/11/07 23:45:30;;;;;;;;;20.00;17.00;;;;;;;;5002080;28;111725;-76
2021/11/07 23:47:56;;;;;;;;;26.00;19.75;;;;;;;;5001644;28;112328;-76
2021/11/07 23:55:31;;;;;;;;;21.00;19.00;;;;;;;;5001421;28;112178;-76
2021/11/07 23:58:01;;;;;;;;;22.00;18.00;;;;;;;;5000555;28;112700;-75
